Flight Track Log - Related Links

Times and Time Zones

All times are in EDT time to prevent confusion due to time zone crossing. See the LBQ652 flight status page for this flight to view local times or setup timezone preferences in your user account.

Time Position Orientation Groundspeed Altitude Reporting Facility
EDT Latitude Longitude Course Direction KTS MPH feet Rate Location/Type
Wed 01:26:58 AM 39.1403 -84.3983 North 169 194 27,000  Level Indianapolis Center
Wed 01:27:58 AM 39.2022 -84.3831 11° North 232 267 3,500 -10,700 Descending Indianapolis Center
Wed 01:28:58 AM 39.2761 -84.3644 11° North 257 296 5,600 2,200 Climbing Indianapolis Center
Wed 01:29:58 AM 39.3508 -84.3442 12° North 269 310 7,900 2,182 Climbing Indianapolis Center
Wed 01:30:59 AM 39.4256 -84.3247 11° North 269 310 10,000 1,983 Climbing Indianapolis Center
Wed 01:31:59 AM 39.4992 -84.3053 12° North 267 307 11,900 1,800 Climbing Indianapolis Center
Wed 01:32:59 AM 39.5756 -84.2844 12° North 274 315 13,600 1,587 Climbing Indianapolis Center
Wed 01:34:00 AM 39.6558 -84.2639 11° North 286 329 15,100 1,388 Climbing Indianapolis Center
Wed 01:35:00 AM 39.7239 -84.2450 12° North 293 337 16,400 1,350 Climbing Indianapolis Center
Wed 01:36:00 AM 39.8069 -84.2231 11° North 300 345 17,800 1,450 Climbing Indianapolis Center
Wed 01:37:00 AM 39.8928 -84.2006 11° North 307 353 19,300 1,388 Climbing Indianapolis Center
Wed 01:38:01 AM 39.9800 -84.1764 12° North 314 361 20,600 1,289 Climbing Indianapolis Center
Wed 01:39:01 AM 40.0694 -84.1514 12° North 323 372 21,900 1,200 Climbing Indianapolis Center
Wed 01:40:01 AM 40.1608 -84.1278 11° North 328 377 23,000 1,150 Climbing Indianapolis Center
Wed 01:41:01 AM 40.2542 -84.1022 12° North 335 386 24,200 1,190 Climbing Indianapolis Center
Wed 01:42:02 AM 40.3492 -84.0758 12° North 341 392 25,400 1,289 Climbing Indianapolis Center
Wed 01:43:02 AM 40.4406 -84.0511 12° North 334 384 26,800 800 Climbing Indianapolis Center
Wed 01:44:02 AM 40.5367 -84.0242 12° North 344 396 27,000 100 Climbing Indianapolis Center
Wed 01:45:02 AM 40.6375 -83.9958 12° North 362 417 27,000  Level Indianapolis Center
Wed 01:46:03 AM 40.7417 -83.9678 12° North 374 430 27,000  Level Indianapolis Center
Wed 01:47:03 AM 40.8478 -83.9394 11° North 381 438 27,000  Level Indianapolis Center
Wed 01:48:03 AM 40.9528 -83.9092 12° North 383 441 27,000  Level Indianapolis Center
Wed 01:49:04 AM 41.0525 -83.8817 12° North 385 443 27,000 -248 Level Indianapolis Center
Wed 01:50:04 AM 41.1589 -83.8508 12° North 389 448 26,500 -750 Descending Indianapolis Center
Wed 01:51:04 AM 41.2686 -83.8197 12° North 398 458 25,500 -1,136 Descending Indianapolis Center
Wed 01:53:30 AM 41.5369 -83.7458 12° North 387 445 22,600 -1,183 Descending Cleveland Center
Wed 01:54:37 AM 41.6503 -83.7150 11° North 379 436 21,300 -1,228 Descending Cleveland Center
Wed 01:55:37 AM 41.7553 -83.6869 11° North 366 421 20,000 -1,240 Descending Cleveland Center
Wed 01:56:38 AM 41.8542 -83.6581 12° North 361 415 18,800 -1,289 Descending Cleveland Center
Wed 01:57:38 AM 41.9486 -83.6319 12° North 358 412 17,400 -1,686 Descending Cleveland Center
Wed 01:58:39 AM 42.0453 -83.6003 14° North 342 394 15,400 -2,213 Descending Cleveland Center
Wed 01:59:40 AM 42.1378 -83.5767 11° North 322 371 12,900 -2,479 Descending Cleveland Center
Wed 02:00:40 AM 42.2217 -83.5525 12° North 303 349 10,400 -2,479 Descending Cleveland Center
Wed 02:01:41 AM 42.3017 -83.5283 13° North 298 343 7,900 -2,459 Descending Cleveland Center
Wed 02:02:42 AM 42.3792 -83.5067 12° North 293 337 5,400 -2,380 Descending Cleveland Center
Wed 02:03:42 AM 42.4589 -83.4850 11° North 293 337 3,100 -2,300 Descending Cleveland Center
Wed 02:05:00 AM 42.5555 -83.4411 16° North  Level FlightAware Approximate
Wed 02:12:00 AM 42.6500 -83.4167 North  Level FlightAware Approximate
Wed 02:13:00 AM 42.6656 -83.4205 North  Level Estimated
Wed 02:14:00 AM 42.6656 -83.4205 North  Level Estimated
Wed 02:15:00 AM 42.6656 -83.4205 North  Level Estimated
Wed 02:16:00 AM 42.6656 -83.4205 North  Level Estimated
Wed 02:17:00 AM 42.6656 -83.4205 North  Level Estimated
Wed 02:18:00 AM 42.6656 -83.4205 North  Level Estimated
Wed 02:19:00 AM 42.6656 -83.4205 North  Level Estimated
Wed 02:20:00 AM 42.6656 -83.4205 North  Level Estimated
Wed 02:21:00 AM 42.6656 -83.4205 North  Level Estimated
Wed 02:22:00 AM 42.6656 -83.4205 North  Level Estimated
Wed 02:23:00 AM 42.6656 -83.4205 North  Level Estimated
Wed 02:24:00 AM 42.6656 -83.4205 North  Level Estimated
Wed 02:25:00 AM 42.6656 -83.4205 North  Level Estimated
Wed 02:26:00 AM 42.6656 -83.4205 North  Level Estimated
Wed 02:27:00 AM 42.6656 -83.4205 North  Level Estimated
Wed 02:28:00 AM 42.6656 -83.4205 North  Level Estimated
Wed 02:29:00 AM 42.6656 -83.4205 North  Level Estimated

Login

Don't have an account? Register now (free) for customized features, flight alerts, and more!